< < Back
Terminal Aerodrome Forecast


Current Version              Previous Versions:   1  2  3  4  5  6  7  8  9  

Terminal Aerodrome Forecast

092
FTUS44 KMOB 271400 AAA
TAFPNS
TAF AMD
KPNS 271431Z 2715/2812 02012G18KT P6SM FEW012 SCT250=



Latest METAR

873
SAUS70 KWBC 280000 RRD
MTRPNS
METAR KPNS 272353Z AUTO 02005KT 10SM CLR 12/M01 A3030 RMK AO2 SLP262
T01171006 10144 20106 53006


USA.gov is the U.S. government's official web portal to all federal, state and local government web resources and services.